Time;durP1;ratioP1;P1;durP2;ratioP2;P2;SDS_P1;SDS_P2;PMS_P1;PMS_P2;Temp;Humidity;BMP_temperature;BMP_pressure;BME280_temperature;BME280_humidity;BME280_pressure;Samples;Min_cycle;Max_cycle;Signal;HPM_P1;HPM_P2
2022/07/04 00:00:43;;;;;;;6.40;2.60;;;;;;;13.95;100.00;156027.81;4992884;28;20552;-75
2022/07/04 00:03:09;;;;;;;9.80;2.50;;;;;;;13.98;100.00;156035.56;5009417;28;20045;-76
2022/07/04 00:05:35;;;;;;;6.90;2.60;;;;;;;14.02;100.00;156045.81;5021186;28;20045;-78
2022/07/04 00:08:01;;;;;;;8.10;3.22;;;;;;;13.83;100.00;155997.00;5009751;28;20041;-76
2022/07/04 00:10:27;;;;;;;6.57;2.75;;;;;;;13.83;100.00;155998.25;5003768;28;20041;-76
2022/07/04 00:12:52;;;;;;;6.78;3.15;;;;;;;13.90;100.00;156015.00;5000065;28;20034;-79
2022/07/04 00:15:19;;;;;;;9.80;2.92;;;;;;;13.91;100.00;156017.53;4973656;28;20054;-76
2022/07/04 00:17:44;;;;;;;4.85;2.20;;;;;;;13.86;100.00;156004.66;4995748;28;20034;-77
2022/07/04 00:20:11;;;;;;;5.55;2.33;;;;;;;13.75;100.00;155977.72;5002156;28;20599;-77
2022/07/04 00:22:37;;;;;;;7.80;3.38;;;;;;;13.76;100.00;155980.25;5007578;28;20477;-76
2022/07/04 00:25:03;;;;;;;7.05;2.38;;;;;;;13.81;100.00;155993.13;4981125;28;20037;-75
2022/07/04 00:27:29;;;;;;;4.50;2.58;;;;;;;13.75;100.00;155976.38;4996986;28;20675;-77
2022/07/04 00:29:55;;;;;;;7.78;3.33;;;;;;;13.75;100.00;155976.38;4997055;28;20038;-78
2022/07/04 00:32:21;;;;;;;6.97;2.83;;;;;;;13.80;100.00;155990.53;4995416;28;20433;-76
2022/07/04 00:34:47;;;;;;;11.82;3.05;;;;;;;13.78;100.00;155985.41;4992442;28;20041;-77
2022/07/04 00:37:13;;;;;;;6.03;3.10;;;;;;;13.76;100.00;155980.25;4975287;28;20038;-77
2022/07/04 00:39:38;;;;;;;8.02;3.00;;;;;;;13.86;100.00;156003.41;5006341;28;20154;-75
2022/07/04 00:42:05;;;;;;;7.55;2.78;;;;;;;13.69;100.00;155962.25;4996615;28;20109;-77
2022/07/04 00:44:31;;;;;;;8.25;2.95;;;;;;;13.77;100.00;155981.56;4992045;28;20038;-77
2022/07/04 00:47:12;;;;;;;5.43;3.00;;;;;;;13.63;100.00;155948.09;4993101;28;20074;-77
2022/07/04 00:49:44;;;;;;;5.95;3.00;;;;;;;13.61;100.00;155942.97;5011019;28;20500;-74
2022/07/04 00:52:30;;;;;;;8.00;2.95;;;;;;;13.49;100.00;155910.88;4993640;28;20037;-77
2022/07/04 00:55:12;;;;;;;11.32;4.13;;;;;;;13.54;100.00;155923.69;5013490;28;20101;-75
2022/07/04 00:57:38;;;;;;;9.95;3.80;;;;;;;13.50;100.00;155913.41;4997678;28;20092;-75
2022/07/04 01:00:06;;;;;;;10.00;4.00;;;;;;;13.60;100.00;155939.16;4976727;28;20037;-77
2022/07/04 01:02:32;;;;;;;5.93;3.75;;;;;;;13.53;100.00;155922.44;4983751;28;20054;-76
2022/07/04 01:04:58;;;;;;;7.63;4.03;;;;;;;13.52;100.00;155918.56;5002886;28;20041;-76
2022/07/04 01:07:24;;;;;;;12.82;4.57;;;;;;;13.47;100.00;155907.00;4998605;28;20053;-77
2022/07/04 01:09:50;;;;;;;10.65;5.13;;;;;;;13.61;100.00;155941.69;4985812;28;20053;-76
2022/07/04 01:12:27;;;;;;;8.40;4.45;;;;;;;13.42;100.00;155895.41;5000158;28;20567;-77
2022/07/04 01:14:57;;;;;;;7.93;4.57;;;;;;;13.41;100.00;155892.88;5004089;28;20050;-77
2022/07/04 01:17:24;;;;;;;10.50;5.47;;;;;;;13.53;100.00;155921.16;5001868;28;20065;-78
2022/07/04 01:19:53;;;;;;;12.27;5.80;;;;;;;13.49;100.00;155912.16;4987544;28;20140;-79
2022/07/04 01:22:20;;;;;;;15.50;6.80;;;;;;;13.56;100.00;155930.16;5002350;28;20046;-77
2022/07/04 01:24:46;;;;;;;12.82;5.95;;;;;;;13.60;100.00;155939.16;5005068;28;20037;-78
2022/07/04 01:27:13;;;;;;;8.88;5.78;;;;;;;13.47;100.00;155905.69;5002668;28;20041;-75
2022/07/04 01:29:51;;;;;;;13.60;6.30;;;;;;;13.46;100.00;155904.44;5000780;28;20061;-77
2022/07/04 01:32:17;;;;;;;13.95;6.10;;;;;;;13.43;100.00;155896.75;4991281;28;20129;-78
2022/07/04 01:34:43;;;;;;;9.27;5.82;;;;;;;13.32;100.00;155868.47;5008017;28;20033;-76
2022/07/04 01:37:10;;;;;;;16.77;6.10;;;;;;;13.35;100.00;155877.41;4986833;28;20575;-78
2022/07/04 01:39:37;;;;;;;9.25;6.60;;;;;;;13.21;100.00;155842.69;5003101;28;20136;-78
2022/07/04 01:42:06;;;;;;;11.77;6.30;;;;;;;13.30;100.00;155864.59;4988270;28;20034;-77
2022/07/04 01:44:32;;;;;;;15.00;7.13;;;;;;;13.22;100.00;155845.28;5032693;28;20037;-78
2022/07/04 01:47:01;;;;;;;14.40;7.75;;;;;;;13.33;100.00;155872.28;4988369;28;20046;-77
2022/07/04 01:49:39;;;;;;;11.95;6.85;;;;;;;13.19;100.00;155837.56;5002761;28;20046;-78
2022/07/04 01:52:08;;;;;;;13.63;7.43;;;;;;;13.27;100.00;155855.56;4985912;28;20045;-75
2022/07/04 01:54:35;;;;;;;11.50;6.63;;;;;;;13.22;100.00;155843.97;4994552;28;20034;-76
2022/07/04 01:57:01;;;;;;;14.20;7.28;;;;;;;13.29;100.00;155861.97;4986418;28;20040;-76
2022/07/04 02:02:12;;;;;;;13.25;7.82;;;;;;;13.38;100.00;155883.88;5001165;28;20073;-78
2022/07/04 02:04:57;;;;;;;15.65;9.25;;;;;;;13.33;100.00;155872.28;5003378;28;20031;-77
2022/07/04 02:07:23;;;;;;;13.77;9.45;;;;;;;13.34;100.00;155874.88;5002636;28;20439;-76
2022/07/04 02:09:55;;;;;;;14.40;9.70;;;;;;;13.33;100.00;155871.00;4983570;28;20038;-77
2022/07/04 02:15:06;;;;;;;16.35;9.13;;;;;;;13.08;100.00;155809.28;4997694;28;20903;-78
2022/07/04 02:17:36;;;;;;;15.85;9.35;;;;;;;13.09;100.00;155810.56;5017355;28;20034;-77
2022/07/04 02:20:20;;;;;;;17.33;9.77;;;;;;;13.18;100.00;155834.97;4987293;28;20080;-76
2022/07/04 02:22:55;;;;;;;15.32;10.27;;;;;;;13.00;100.00;155790.00;4995652;28;20064;-78
2022/07/04 02:25:21;;;;;;;19.48;11.48;;;;;;;13.07;100.00;155806.69;4999193;28;20054;-79
2022/07/04 02:28:00;;;;;;;14.82;11.48;;;;;;;13.15;100.00;155826.00;5004191;28;20057;-76
2022/07/04 02:30:34;;;;;;;20.02;12.70;;;;;;;13.13;100.00;155822.16;5001790;28;20045;-75
2022/07/04 02:33:08;;;;;;;18.98;12.50;;;;;;;13.12;100.00;155819.56;4985153;28;20077;-78
2022/07/04 02:35:43;;;;;;;21.08;13.95;;;;;;;13.24;100.00;155850.41;4999740;28;20045;-78
2022/07/04 02:38:43;;;;;;;21.92;13.32;;;;;;;13.21;100.00;155841.41;4999133;28;20034;-78
2022/07/04 02:41:18;;;;;;;24.00;15.30;;;;;;;13.10;100.00;155814.41;5001164;28;20037;-78
2022/07/04 02:43:44;;;;;;;16.65;13.25;;;;;;;12.94;100.00;155774.63;4995994;28;20121;-79
2022/07/04 02:46:09;;;;;;;24.65;15.55;;;;;;;12.99;100.00;155787.41;4987206;28;20124;-79
2022/07/04 02:48:35;;;;;;;26.05;15.82;;;;;;;13.02;100.00;155793.88;5023570;23;20569;-76
2022/07/04 02:51:00;;;;;;;22.02;15.15;;;;;;;13.12;100.00;155818.28;4983455;28;20037;-75
2022/07/04 02:53:26;;;;;;;20.63;15.57;;;;;;;13.07;100.00;155805.41;4994093;28;20030;-75
2022/07/04 02:55:52;;;;;;;22.70;16.17;;;;;;;13.16;100.00;155829.81;5003779;28;20045;-77
2022/07/04 02:58:17;;;;;;;22.00;14.98;;;;;;;13.06;100.00;155804.16;4992333;28;20049;-76
2022/07/04 03:00:43;;;;;;;26.30;14.80;;;;;;;13.10;100.00;155813.16;4965699;28;20143;-75
2022/07/04 03:03:09;;;;;;;22.50;15.35;;;;;;;13.07;100.00;155806.69;4989063;28;20046;-75
2022/07/04 03:05:34;;;;;;;20.08;14.20;;;;;;;13.11;100.00;155815.69;4998287;28;20045;-75
2022/07/04 03:08:00;;;;;;;20.10;14.93;;;;;;;13.03;100.00;155797.75;5001072;28;20462;-77
2022/07/04 03:10:25;;;;;;;19.63;14.30;;;;;;;13.04;100.00;155800.28;4968158;28;20042;-75
2022/07/04 03:12:51;;;;;;;20.05;13.82;;;;;;;12.99;100.00;155787.41;5000034;28;20036;-75
2022/07/04 03:15:17;;;;;;;18.13;14.52;;;;;;;13.00;100.00;155788.75;4996675;28;20034;-76
2022/07/04 03:17:42;;;;;;;24.40;16.42;;;;;;;13.04;100.00;155800.28;4969034;28;20083;-75
2022/07/04 03:20:08;;;;;;;23.05;15.60;;;;;;;13.05;100.00;155801.56;5002315;28;20502;-75
2022/07/04 03:22:34;;;;;;;23.38;16.55;;;;;;;13.01;100.00;155791.28;4996493;28;20435;-75
2022/07/04 03:25:00;;;;;;;27.00;17.33;;;;;;;13.11;100.00;155815.69;4994278;28;20096;-75
2022/07/04 03:27:26;;;;;;;22.63;16.42;;;;;;;13.05;100.00;155801.56;4999457;28;20042;-76
2022/07/04 03:29:51;;;;;;;27.65;18.15;;;;;;;13.10;100.00;155813.16;5019120;28;20113;-76
2022/07/04 03:32:17;;;;;;;22.08;16.75;;;;;;;13.04;100.00;155800.28;5001081;28;20061;-76
2022/07/04 03:34:42;;;;;;;33.38;19.60;;;;;;;13.02;100.00;155793.88;4982922;28;20419;-76
2022/07/04 03:37:08;;;;;;;27.95;19.92;;;;;;;13.10;100.00;155814.41;4966201;28;20058;-74
2022/07/04 03:39:33;;;;;;;30.15;20.63;;;;;;;13.09;100.00;155811.88;5004380;28;20517;-75
2022/07/04 03:41:59;;;;;;;29.08;19.30;;;;;;;13.19;100.00;155836.28;5020291;28;20116;-79
2022/07/04 03:44:25;;;;;;;27.38;18.75;;;;;;;13.18;100.00;155833.69;5004120;28;20025;-78
2022/07/04 03:46:50;;;;;;;30.63;21.80;;;;;;;13.25;100.00;155851.69;5001213;28;20130;-76
2022/07/04 03:49:16;;;;;;;33.80;21.65;;;;;;;13.27;100.00;155855.56;5015726;28;20030;-76
2022/07/04 03:51:41;;;;;;;32.70;21.85;;;;;;;13.15;100.00;155827.28;4977981;28;20124;-81
2022/07/04 03:54:07;;;;;;;35.25;22.00;;;;;;;13.15;100.00;155826.00;5003554;28;20030;-76
2022/07/04 03:56:33;;;;;;;32.25;21.83;;;;;;;13.17;100.00;155831.16;4988587;28;20030;-77
2022/07/04 03:58:58;;;;;;;37.95;21.90;;;;;;;13.28;100.00;155858.09;5017414;28;20400;-77
2022/07/04 04:01:24;;;;;;;33.38;21.52;;;;;;;13.32;100.00;155869.75;4976059;28;20124;-77
2022/07/04 04:06:34;;;;;;;32.42;20.52;;;;;;;13.33;100.00;155872.28;5009442;28;20569;-76
2022/07/04 04:08:59;;;;;;;32.22;20.23;;;;;;;13.35;100.00;155876.16;5004813;28;20070;-76
2022/07/04 04:11:25;;;;;;;32.47;20.27;;;;;;;13.35;100.00;155876.16;5020963;28;20044;-77
2022/07/04 04:13:51;;;;;;;29.92;19.88;;;;;;;13.24;100.00;155849.09;4981605;28;20042;-79
2022/07/04 04:16:16;;;;;;;30.40;19.88;;;;;;;13.33;100.00;155872.28;4987546;28;20040;-75
2022/07/04 04:18:42;;;;;;;28.45;20.33;;;;;;;13.35;100.00;155877.41;5008031;28;20042;-76
2022/07/04 04:21:07;;;;;;;24.45;17.48;;;;;;;13.31;100.00;155865.88;4992880;28;20136;-76
2022/07/04 04:23:33;;;;;;;25.20;18.45;;;;;;;13.33;100.00;155871.00;4999489;28;20038;-78
2022/07/04 04:25:59;;;;;;;25.55;18.00;;;;;;;13.39;100.00;155886.41;4996232;28;20494;-75
2022/07/04 04:28:24;;;;;;;22.92;16.10;;;;;;;13.41;100.00;155892.88;4986574;28;20025;-75
2022/07/04 04:30:50;;;;;;;25.23;15.90;;;;;;;13.48;100.00;155909.56;5004134;28;20034;-76
2022/07/04 04:33:16;;;;;;;25.48;15.68;;;;;;;13.47;100.00;155907.00;4987878;28;20059;-79
2022/07/04 04:35:41;;;;;;;21.02;14.52;;;;;;;13.52;100.00;155918.56;5002353;28;20398;-76
2022/07/04 04:38:07;;;;;;;17.92;13.02;;;;;;;13.60;100.00;155939.16;4998127;28;20799;-75
2022/07/04 04:40:33;;;;;;;18.02;12.55;;;;;;;13.67;100.00;155957.13;4992736;28;20103;-77
2022/07/04 04:42:58;;;;;;;19.73;11.43;;;;;;;13.78;100.00;155984.13;4970314;28;20048;-77
2022/07/04 04:45:24;;;;;;;16.35;10.43;;;;;;;13.84;100.00;155999.53;4986219;28;20034;-76
2022/07/04 04:47:51;;;;;;;12.05;8.65;;;;;;;13.90;100.00;156013.69;4983044;28;20045;-76
2022/07/04 04:50:17;;;;;;;15.95;9.05;;;;;;;13.87;100.00;156007.25;5004628;28;20360;-76
2022/07/04 04:52:42;;;;;;;13.20;8.85;;;;;;;13.83;100.00;155997.00;4995323;28;20048;-77
2022/07/04 04:55:08;;;;;;;13.20;8.60;;;;;;;13.89;100.00;156012.41;4984846;28;20037;-77
2022/07/04 04:57:34;;;;;;;11.88;8.27;;;;;;;13.88;100.00;156009.84;4972283;28;20046;-77
2022/07/04 05:00:00;;;;;;;14.00;7.70;;;;;;;13.96;100.00;156030.41;4968472;28;20714;-78
2022/07/04 05:02:27;;;;;;;11.68;6.95;;;;;;;14.01;100.00;156041.97;5014266;28;20499;-77
2022/07/04 05:04:53;;;;;;;13.68;7.00;;;;;;;14.13;100.00;156071.56;5004339;28;20045;-77
2022/07/04 05:07:19;;;;;;;12.68;6.40;;;;;;;14.25;100.00;156101.13;5002551;28;20046;-78
2022/07/04 05:09:45;;;;;;;11.88;5.85;;;;;;;14.39;100.00;156137.09;5005079;28;20065;-77
2022/07/04 05:12:11;;;;;;;11.20;5.28;;;;;;;14.41;100.00;156142.28;4984452;28;20072;-76
2022/07/04 05:14:36;;;;;;;6.80;4.78;;;;;;;14.39;100.00;156138.41;5004046;28;20058;-76
2022/07/04 05:17:02;;;;;;;10.55;3.55;;;;;;;14.39;100.00;156137.09;5006100;28;20123;-76
2022/07/04 05:19:29;;;;;;;6.95;2.97;;;;;;;14.40;100.00;156139.69;5000130;28;20038;-77
2022/07/04 05:21:54;;;;;;;8.40;3.30;;;;;;;14.45;100.00;156151.25;5010741;28;20615;-77
2022/07/04 05:24:20;;;;;;;8.75;3.13;;;;;;;14.51;100.00;156168.00;4993727;28;20041;-77
2022/07/04 05:26:46;;;;;;;7.93;3.20;;;;;;;14.51;100.00;156168.00;4972908;28;20046;-78
2022/07/04 05:29:11;;;;;;;6.63;2.80;;;;;;;14.63;100.00;156196.34;4998243;28;20104;-77
2022/07/04 05:31:37;;;;;;;4.97;2.63;;;;;;;14.71;100.00;156218.22;4986892;28;20034;-77
2022/07/04 05:34:03;;;;;;;4.30;2.47;;;;;;;14.85;100.00;156252.94;5001183;28;20790;-78
2022/07/04 05:36:29;;;;;;;9.40;2.60;;;;;;;14.90;100.00;156264.47;4989032;28;20049;-76
2022/07/04 05:38:55;;;;;;;8.90;2.08;;;;;;;15.21;100.00;156342.97;4997360;28;20481;-78
2022/07/04 05:41:20;;;;;;;5.13;1.77;;;;;;;15.33;100.00;156373.88;4970161;28;20065;-76
2022/07/04 05:43:46;;;;;;;5.72;1.65;;;;;;;15.34;100.00;156375.16;4971452;28;21591;-76
2022/07/04 05:46:12;;;;;;;5.60;1.80;;;;;;;15.54;100.00;156425.34;4990207;28;20045;-75
2022/07/04 05:48:37;;;;;;;6.30;1.67;;;;;;;15.57;100.00;156434.31;4988241;28;20033;-75
2022/07/04 05:51:03;;;;;;;5.50;2.28;;;;;;;15.73;100.00;156474.28;5008104;28;20103;-75
2022/07/04 05:53:29;;;;;;;3.35;1.83;;;;;;;15.90;100.00;156515.50;5005922;28;20041;-75
2022/07/04 05:55:55;;;;;;;4.82;1.83;;;;;;;15.85;100.00;156502.59;5002874;28;20575;-77
2022/07/04 05:58:21;;;;;;;4.20;1.58;;;;;;;15.93;100.00;156523.19;5001471;28;20041;-76
2022/07/04 06:00:46;;;;;;;3.42;1.42;;;;;;;16.00;100.00;156541.22;5003431;28;20510;-75
2022/07/04 06:03:12;;;;;;;4.35;1.40;;;;;;;16.21;100.00;156593.97;4999325;28;20180;-76
2022/07/04 06:05:37;;;;;;;5.32;1.40;;;;;;;16.26;100.00;156605.59;4991911;28;20128;-74
2022/07/04 06:08:03;;;;;;;3.50;1.30;;;;;;;16.28;100.00;156612.00;4966508;28;20034;-75
2022/07/04 06:10:29;;;;;;;3.80;1.50;;;;;;;16.25;100.00;156603.00;5002636;28;20065;-75
2022/07/04 06:12:55;;;;;;;4.20;1.42;;;;;;;16.43;100.00;156648.06;4985203;28;20057;-77
2022/07/04 06:15:21;;;;;;;3.97;1.08;;;;;;;16.45;100.00;156654.50;4983762;28;20033;-76
2022/07/04 06:17:46;;;;;;;4.18;1.58;;;;;;;16.55;100.00;156680.22;4988926;28;20475;-76
2022/07/04 06:20:12;;;;;;;4.78;1.35;;;;;;;16.69;100.00;156715.03;5008726;28;20045;-76
2022/07/04 06:22:42;;;;;;;5.53;1.20;;;;;;;16.84;100.00;156751.09;4993790;28;20034;-76
2022/07/04 06:25:26;;;;;;;5.55;1.40;;;;;;;16.98;100.00;156785.91;4996013;28;20452;-78
2022/07/04 06:27:52;;;;;;;3.60;1.00;;;;;;;17.06;100.00;156807.78;4995813;28;20072;-76
2022/07/04 06:30:18;;;;;;;5.72;1.33;;;;;;;17.07;100.00;156810.38;5003488;28;20453;-76
2022/07/04 06:32:51;;;;;;;6.38;1.35;;;;;;;17.22;100.00;156847.72;5003674;28;20036;-75
2022/07/04 06:38:04;;;;;;;4.75;1.20;;;;;;;17.47;100.00;156910.81;5003205;28;20034;-77
2022/07/04 06:40:30;;;;;;;4.82;1.13;;;;;;;17.56;99.76;156932.75;4978942;28;20155;-77
2022/07/04 06:42:55;;;;;;;4.35;1.10;;;;;;;17.76;100.00;156982.97;5000419;28;20245;-77
2022/07/04 06:45:21;;;;;;;5.30;1.20;;;;;;;17.95;98.85;157030.75;4987968;28;20394;-76
2022/07/04 06:47:46;;;;;;;7.95;1.25;;;;;;;18.15;96.37;157079.69;4995067;28;20034;-74
2022/07/04 06:50:12;;;;;;;5.72;1.13;;;;;;;18.09;98.15;157065.50;4997567;28;20037;-77
2022/07/04 06:52:39;;;;;;;4.50;1.20;;;;;;;17.85;98.61;157006.22;4994635;28;20038;-76
2022/07/04 06:55:06;;;;;;;6.25;1.58;;;;;;;17.86;98.54;157007.53;4984605;28;20411;-78
2022/07/04 06:57:32;;;;;;;4.30;1.48;;;;;;;17.92;96.10;157023.00;4988012;28;20042;-76
2022/07/04 06:59:58;;;;;;;3.45;1.38;;;;;;;18.06;94.50;157057.75;4998174;28;20046;-77
2022/07/04 07:02:23;;;;;;;3.55;1.48;;;;;;;17.83;95.69;156999.75;5011375;28;20074;-79
2022/07/04 07:04:49;;;;;;;5.72;1.73;;;;;;;17.69;96.04;156964.97;5001515;28;20029;-78
2022/07/04 07:07:14;;;;;;;7.18;1.48;;;;;;;18.01;93.83;157044.91;4988240;28;20132;-78
2022/07/04 07:09:40;;;;;;;9.55;1.38;;;;;;;18.14;94.19;157078.41;5003513;28;20034;-77
2022/07/04 07:12:06;;;;;;;6.40;1.65;;;;;;;18.30;92.05;157118.34;5014830;28;20058;-77
2022/07/04 07:14:32;;;;;;;5.20;1.40;;;;;;;18.51;91.03;157169.91;4977543;28;20155;-77
2022/07/04 07:16:58;;;;;;;7.07;1.42;;;;;;;18.70;88.31;157218.88;5016910;28;20058;-76
2022/07/04 07:19:23;;;;;;;3.78;1.05;;;;;;;18.58;90.01;157189.25;5009400;28;20030;-76
2022/07/04 07:21:49;;;;;;;8.73;1.48;;;;;;;18.44;90.40;157154.47;5004886;28;20100;-77
2022/07/04 07:24:14;;;;;;;6.45;1.10;;;;;;;18.49;90.06;157166.03;4997526;28;20517;-77
2022/07/04 07:26:40;;;;;;;7.43;0.85;;;;;;;18.53;90.97;157175.06;5003780;28;20052;-78
2022/07/04 07:29:06;;;;;;;3.22;1.02;;;;;;;18.33;87.42;157126.09;5002999;28;20045;-77
2022/07/04 07:31:31;;;;;;;3.65;0.80;;;;;;;18.72;88.49;157224.03;4993406;28;20029;-76
2022/07/04 07:33:57;;;;;;;5.70;1.20;;;;;;;18.66;88.26;157209.84;5020527;28;20104;-77
2022/07/04 07:36:22;;;;;;;3.55;1.02;;;;;;;18.65;87.58;157207.28;4989044;28;20037;-77
2022/07/04 07:38:48;;;;;;;2.65;0.80;;;;;;;18.86;83.53;157260.19;5000217;28;20138;-78
2022/07/04 07:41:14;;;;;;;4.13;1.00;;;;;;;18.95;83.06;157280.81;5002618;28;20034;-78
2022/07/04 07:43:40;;;;;;;6.60;0.90;;;;;;;18.99;81.93;157292.44;4988315;28;20030;-74
2022/07/04 07:46:07;;;;;;;4.00;0.70;;;;;;;18.58;87.77;157187.97;5001581;28;20046;-79
2022/07/04 07:48:33;;;;;;;3.38;0.80;;;;;;;18.48;87.84;157163.47;4980118;28;20038;-76
2022/07/04 07:50:59;;;;;;;4.45;0.73;;;;;;;18.82;86.27;157248.63;5006952;28;20128;-79
2022/07/04 07:53:24;;;;;;;6.78;0.93;;;;;;;19.32;85.35;157374.94;4961154;28;20073;-78
2022/07/04 07:55:50;;;;;;;3.38;0.70;;;;;;;19.52;83.39;157423.97;4968427;28;20038;-74
2022/07/04 07:58:16;;;;;;;5.22;0.90;;;;;;;19.28;83.08;157363.34;4993967;28;20133;-78
2022/07/04 08:00:42;;;;;;;4.07;0.80;;;;;;;18.90;80.27;157267.94;4996349;28;20045;-77
2022/07/04 08:05:52;;;;;;;2.67;0.73;;;;;;;19.25;84.16;157358.19;4982338;28;20050;-78
2022/07/04 08:08:17;;;;;;;4.25;0.70;;;;;;;19.64;78.78;157454.91;4988264;28;20636;-76
2022/07/04 08:10:43;;;;;;;2.78;0.63;;;;;;;19.81;78.51;157498.81;4983915;28;20072;-79
2022/07/04 08:13:08;;;;;;;3.20;0.80;;;;;;;19.56;80.41;157434.28;5002525;28;20052;-77
2022/07/04 08:15:34;;;;;;;3.97;0.70;;;;;;;19.74;83.30;157479.47;4974644;28;20064;-77
2022/07/04 08:18:00;;;;;;;5.78;0.82;;;;;;;19.75;79.32;157483.34;4984251;28;20111;-77
2022/07/04 08:20:25;;;;;;;3.13;0.70;;;;;;;19.66;78.04;157460.06;4992204;28;20030;-83
2022/07/04 08:22:51;;;;;;;1.83;0.45;;;;;;;19.82;75.06;157500.13;4983386;28;20042;-77
2022/07/04 08:25:17;;;;;;;2.47;0.57;;;;;;;20.13;74.72;157578.78;4993451;28;20033;-76
2022/07/04 08:27:43;;;;;;;2.03;0.60;;;;;;;20.41;73.90;157648.47;5002200;28;20033;-78
2022/07/04 08:30:09;;;;;;;6.35;0.65;;;;;;;20.16;76.40;157586.56;5003287;28;20030;-77
2022/07/04 08:32:35;;;;;;;2.38;0.60;;;;;;;19.60;78.12;157444.59;4987456;28;20029;-79
2022/07/04 08:35:02;;;;;;;3.78;0.80;;;;;;;19.20;82.86;157344.03;5017436;28;20026;-76
2022/07/04 08:37:28;;;;;;;1.17;0.52;;;;;;;18.97;81.64;157287.28;5011477;28;20042;-78
2022/07/04 08:39:54;;;;;;;6.03;0.82;;;;;;;19.35;80.67;157382.69;4986437;28;20172;-78
2022/07/04 08:42:22;;;;;;;6.47;0.70;;;;;;;19.94;78.72;157531.06;4999966;28;20523;-77
2022/07/04 08:44:55;;;;;;;2.67;0.63;;;;;;;20.41;73.61;157648.47;4983147;28;20034;-79
2022/07/04 08:47:23;;;;;;;3.90;0.70;;;;;;;20.54;nan;157682.03;5007361;28;20045;-75
2022/07/04 08:50:10;;;;;;;5.63;0.60;;;;;;;20.12;74.83;157574.97;5006658;23;20200;-79
2022/07/04 08:52:47;;;;;;;2.90;0.60;;;;;;;20.22;77.44;157602.00;5005823;28;20034;-77
2022/07/04 09:00:42;;;;;;;3.88;0.70;;;;;;;21.41;69.25;157900.22;4984376;28;20026;-76
2022/07/04 09:03:09;;;;;;;1.75;0.50;;;;;;;21.58;69.90;157942.88;4984569;28;20272;-77
2022/07/04 09:05:35;;;;;;;6.05;0.80;;;;;;;21.78;66.55;157994.53;5000709;28;20043;-77
2022/07/04 09:08:03;;;;;;;5.22;0.85;;;;;;;21.83;66.76;158006.16;5010743;28;20034;-77
2022/07/04 09:10:29;;;;;;;1.90;0.80;;;;;;;21.64;65.33;157957.06;5005955;28;20041;-77
2022/07/04 09:12:57;;;;;;;5.25;0.70;;;;;;;21.87;67.75;158015.16;4995979;28;20041;-76
2022/07/04 09:15:24;;;;;;;2.83;0.63;;;;;;;22.11;67.10;158077.19;5000834;28;20088;-75
2022/07/04 09:17:49;;;;;;;2.08;0.50;;;;;;;21.86;69.71;158012.59;4971094;28;20583;-77
2022/07/04 09:20:19;;;;;;;0.98;0.50;;;;;;;21.45;67.63;157909.28;4971336;28;20120;-76
2022/07/04 09:22:47;;;;;;;3.65;0.70;;;;;;;21.49;65.45;157919.63;5003944;28;20038;-78
2022/07/04 09:25:16;;;;;;;2.28;0.38;;;;;;;21.70;65.68;157972.53;5014790;28;20034;-80
2022/07/04 09:27:45;;;;;;;2.58;0.30;;;;;;;21.96;65.31;158038.41;4992488;28;20085;-78
2022/07/04 09:30:12;;;;;;;2.03;0.60;;;;;;;22.19;64.32;158095.22;4990096;28;20030;-75
2022/07/04 09:32:47;;;;;;;3.17;0.50;;;;;;;22.15;65.33;158086.19;4992841;28;20480;-76
2022/07/04 09:35:20;;;;;;;4.72;0.68;;;;;;;21.71;65.98;157975.16;5013003;28;20029;-78
2022/07/04 09:37:54;;;;;;;2.00;0.60;;;;;;;21.99;67.35;158046.19;4988541;28;20583;-77
2022/07/04 09:40:29;;;;;;;1.73;0.50;;;;;;;22.31;63.08;158126.31;4981445;28;20432;-76
2022/07/04 09:43:01;;;;;;;1.55;0.52;;;;;;;22.26;61.08;158113.38;4999861;28;20041;-78
2022/07/04 09:45:28;;;;;;;6.20;0.63;;;;;;;22.63;62.87;158206.41;4967725;28;20109;-74
2022/07/04 09:47:59;;;;;;;1.70;0.82;;;;;;;22.77;63.16;158242.53;4974102;28;20042;-76
2022/07/04 09:50:28;;;;;;;3.10;0.60;;;;;;;22.11;62.35;158077.19;4987491;28;20367;-77
2022/07/04 09:52:57;;;;;;;1.33;0.40;;;;;;;21.57;66.63;157940.31;4991676;28;20033;-76
2022/07/04 09:55:39;;;;;;;1.63;0.40;;;;;;;20.91;66.50;157773.75;4989065;28;20488;-75
2022/07/04 09:58:10;;;;;;;6.07;0.60;;;;;;;20.90;67.87;157772.41;4969248;28;20037;-78
2022/07/04 10:00:40;;;;;;;3.40;0.50;;;;;;;21.75;66.66;157986.75;4973189;28;20033;-78
2022/07/04 10:03:25;;;;;;;2.92;0.45;;;;;;;21.80;71.16;157997.13;4972928;28;20522;-76
2022/07/04 10:06:07;;;;;;;5.88;0.52;;;;;;;21.84;65.69;158008.72;4977387;28;20128;-76
2022/07/04 10:08:33;;;;;;;1.80;0.57;;;;;;;21.91;65.71;158025.53;4997898;28;20616;-77
2022/07/04 10:11:01;;;;;;;1.02;0.40;;;;;;;22.47;65.64;158166.31;4985836;28;20074;-78
2022/07/04 10:13:26;;;;;;;2.28;0.43;;;;;;;22.93;59.91;158282.63;4981491;28;20030;-77
2022/07/04 10:15:53;;;;;;;2.08;0.85;;;;;;;23.27;61.40;158367.94;4977542;28;20049;-78
2022/07/04 10:18:20;;;;;;;2.33;0.40;;;;;;;23.64;59.48;158460.97;4983614;28;20058;-76
2022/07/04 10:20:48;;;;;;;1.58;0.50;;;;;;;23.33;60.15;158383.44;4975614;28;20033;-78
2022/07/04 10:23:15;;;;;;;2.22;0.50;;;;;;;22.62;61.52;158203.78;4980942;28;20146;-77
2022/07/04 10:25:41;;;;;;;2.63;0.57;;;;;;;22.06;65.82;158063.00;4999611;28;20065;-78
2022/07/04 10:28:08;;;;;;;2.95;0.57;;;;;;;21.68;66.89;157968.72;4993408;28;20046;-79
2022/07/04 10:30:40;;;;;;;1.33;0.40;;;;;;;21.18;73.21;157842.13;4972890;28;20546;-79
2022/07/04 10:33:08;;;;;;;1.03;0.33;;;;;;;21.28;68.76;157866.66;4975445;28;20497;-78
2022/07/04 10:35:54;;;;;;;2.22;0.50;;;;;;;21.33;73.11;157880.84;4987761;28;20276;-76
2022/07/04 10:38:26;;;;;;;1.60;0.68;;;;;;;22.28;69.57;158118.53;4991610;28;20133;-77
2022/07/04 10:40:57;;;;;;;0.90;0.40;;;;;;;22.55;63.32;158188.31;4987328;28;20041;-76
2022/07/04 10:43:39;;;;;;;1.63;0.43;;;;;;;22.09;64.54;158071.97;4983694;28;20077;-76
2022/07/04 10:46:10;;;;;;;2.72;0.50;;;;;;;21.77;66.13;157991.97;4987436;28;20061;-77
2022/07/04 10:48:36;;;;;;;4.40;0.75;;;;;;;21.39;72.31;157895.03;4996903;28;20084;-75
2022/07/04 10:51:06;;;;;;;2.33;0.60;;;;;;;20.84;71.00;157755.66;4993793;28;20117;-77
2022/07/04 10:53:33;;;;;;;1.48;0.55;;;;;;;20.48;71.17;157665.28;5005122;28;20435;-77
2022/07/04 10:56:14;;;;;;;4.07;0.50;;;;;;;20.31;80.02;157622.69;5000463;28;20517;-77
2022/07/04 10:58:41;;;;;;;2.05;0.50;;;;;;;20.15;82.36;157583.94;4984706;28;20046;-77
2022/07/04 11:01:17;;;;;;;1.67;0.50;;;;;;;19.97;84.64;157537.53;4964418;28;20038;-77
2022/07/04 11:03:46;;;;;;;1.58;0.47;;;;;;;19.97;80.56;157538.81;4989275;28;20088;-78
2022/07/04 11:06:33;;;;;;;1.30;0.40;;;;;;;19.97;84.73;157537.53;4983950;28;20057;-77
2022/07/04 11:09:18;;;;;;;3.80;0.45;;;;;;;20.69;77.10;157719.50;4986618;28;20061;-76
2022/07/04 11:11:58;;;;;;;3.92;0.40;;;;;;;21.90;70.37;158022.94;4974511;28;20030;-77
2022/07/04 11:14:44;;;;;;;1.23;0.60;;;;;;;22.81;66.21;158251.59;4997102;28;20030;-77
2022/07/04 11:17:13;;;;;;;3.00;0.52;;;;;;;23.40;61.83;158400.28;4989666;28;20037;-77
2022/07/04 11:19:40;;;;;;;0.70;0.30;;;;;;;23.75;59.04;158488.13;4991230;28;20045;-79
2022/07/04 11:22:09;;;;;;;1.27;0.40;;;;;;;23.02;61.04;158305.88;4983977;28;20080;-76
2022/07/04 11:24:35;;;;;;;2.25;0.40;;;;;;;22.80;64.26;158249.03;5005776;28;20754;-78
2022/07/04 11:27:02;;;;;;;2.53;0.40;;;;;;;22.53;63.95;158183.16;5003311;28;20042;-77
2022/07/04 11:29:29;;;;;;;2.00;0.40;;;;;;;22.68;66.16;158220.59;4999783;28;20378;-78
2022/07/04 11:31:55;;;;;;;1.45;0.43;;;;;;;23.01;58.70;158302.00;5013361;28;20044;-78
2022/07/04 11:34:21;;;;;;;3.50;0.55;;;;;;;23.69;56.48;158473.91;4989362;28;20900;-79
2022/07/04 11:36:49;;;;;;;1.70;0.47;;;;;;;23.69;60.24;158473.91;4971120;28;20045;-79
2022/07/04 11:39:19;;;;;;;2.63;0.70;;;;;;;23.13;61.80;158333.03;5003322;28;20044;-78